Time;durP1;ratioP1;P1;durP2;ratioP2;P2;SDS_P1;SDS_P2;PMS_P1;PMS_P2;Temp;Humidity;BMP_temperature;BMP_pressure;BME280_temperature;BME280_humidity;BME280_pressure;Samples;Min_cycle;Max_cycle;Signal;HPM_P1;HPM_P2
2023/10/23 00:01:40;;;;;;;7.53;1.58;;;;;;;;;;4982822;28;20448;-84
2023/10/23 00:04:08;;;;;;;7.45;1.77;;;;;;;;;;4972912;28;20065;-84
2023/10/23 00:06:35;;;;;;;7.93;1.83;;;;;;;;;;4971708;28;20059;-84
2023/10/23 00:09:03;;;;;;;8.98;2.45;;;;;;;;;;4975211;28;20046;-84
2023/10/23 00:11:31;;;;;;;7.57;2.10;;;;;;;;;;4982273;28;20070;-84
2023/10/23 00:13:58;;;;;;;13.00;2.20;;;;;;;;;;4984941;28;20077;-84
2023/10/23 00:16:25;;;;;;;4.07;1.50;;;;;;;;;;4991464;28;20046;-84
2023/10/23 00:18:53;;;;;;;9.68;1.92;;;;;;;;;;4991708;28;20050;-84
2023/10/23 00:21:20;;;;;;;10.40;2.63;;;;;;;;;;5001142;28;20055;-84
2023/10/23 00:23:47;;;;;;;7.40;1.95;;;;;;;;;;4980483;28;20115;-84
2023/10/23 00:26:15;;;;;;;5.55;1.95;;;;;;;;;;4995066;28;20054;-84
2023/10/23 00:28:42;;;;;;;8.10;1.90;;;;;;;;;;5000736;28;20055;-84
2023/10/23 00:31:10;;;;;;;4.65;1.67;;;;;;;;;;4990122;28;20505;-85
2023/10/23 00:33:37;;;;;;;8.55;1.83;;;;;;;;;;4983440;28;20391;-84
2023/10/23 00:36:05;;;;;;;8.85;2.00;;;;;;;;;;4984578;28;20042;-84
2023/10/23 00:38:32;;;;;;;11.32;1.85;;;;;;;;;;5001539;28;20046;-84
2023/10/23 00:40:59;;;;;;;11.30;2.00;;;;;;;;;;4985597;28;20129;-84
2023/10/23 00:43:27;;;;;;;6.53;2.03;;;;;;;;;;5011662;28;20077;-84
2023/10/23 00:46:02;;;;;;;8.65;1.98;;;;;;;;;;5004619;28;20046;-84
2023/10/23 00:48:30;;;;;;;13.20;2.35;;;;;;;;;;5010492;28;20097;-85
2023/10/23 00:50:58;;;;;;;7.80;2.03;;;;;;;;;;5002952;28;20142;-84
2023/10/23 00:53:27;;;;;;;12.60;2.47;;;;;;;;;;4985756;28;20051;-84
2023/10/23 00:55:55;;;;;;;8.77;1.75;;;;;;;;;;5000790;28;20047;-84
2023/10/23 00:58:26;;;;;;;9.25;2.03;;;;;;;;;;4982729;28;20046;-84
2023/10/23 01:00:55;;;;;;;7.80;1.90;;;;;;;;;;5004962;28;20133;-84
2023/10/23 01:03:22;;;;;;;9.82;2.00;;;;;;;;;;5012811;28;20050;-84
2023/10/23 01:05:50;;;;;;;6.60;2.10;;;;;;;;;;4987564;28;20077;-86
2023/10/23 01:08:17;;;;;;;7.60;1.83;;;;;;;;;;4996644;28;20568;-84
2023/10/23 01:10:45;;;;;;;5.07;2.05;;;;;;;;;;4987045;28;20050;-84
2023/10/23 01:13:13;;;;;;;10.27;2.20;;;;;;;;;;4973194;28;20504;-84
2023/10/23 01:15:40;;;;;;;9.80;2.92;;;;;;;;;;4965329;28;20055;-84
2023/10/23 01:18:07;;;;;;;5.57;1.33;;;;;;;;;;4986332;28;20055;-84
2023/10/23 01:20:35;;;;;;;12.20;2.15;;;;;;;;;;4994507;28;20120;-84
2023/10/23 01:23:02;;;;;;;9.05;1.85;;;;;;;;;;4973619;28;20069;-83
2023/10/23 01:25:30;;;;;;;8.13;2.10;;;;;;;;;;4990843;28;20155;-84
2023/10/23 01:27:57;;;;;;;9.63;1.73;;;;;;;;;;4959192;28;20122;-84
2023/10/23 01:30:25;;;;;;;8.15;2.53;;;;;;;;;;4967172;28;20051;-84
2023/10/23 01:32:52;;;;;;;11.73;2.33;;;;;;;;;;4962409;28;20054;-84
2023/10/23 01:35:19;;;;;;;7.00;2.20;;;;;;;;;;4979420;28;20111;-84
2023/10/23 01:37:47;;;;;;;8.93;1.83;;;;;;;;;;4976159;28;20087;-84
2023/10/23 01:40:14;;;;;;;13.15;2.17;;;;;;;;;;4974575;28;20054;-84
2023/10/23 01:42:43;;;;;;;11.82;2.30;;;;;;;;;;4972290;28;20050;-84
2023/10/23 01:45:11;;;;;;;12.15;2.13;;;;;;;;;;4972577;28;20046;-84
2023/10/23 01:47:38;;;;;;;8.30;2.22;;;;;;;;;;4970311;28;20422;-84
2023/10/23 01:50:06;;;;;;;9.13;1.98;;;;;;;;;;4971418;28;20129;-84
2023/10/23 01:52:33;;;;;;;9.98;1.90;;;;;;;;;;4962824;28;20055;-84
2023/10/23 01:55:00;;;;;;;14.38;2.22;;;;;;;;;;4970346;28;20059;-84
2023/10/23 01:57:28;;;;;;;9.27;2.38;;;;;;;;;;4961865;28;20070;-84
2023/10/23 02:00:03;;;;;;;13.35;1.73;;;;;;;;;;4970545;28;20050;-84
2023/10/23 02:02:30;;;;;;;8.35;1.80;;;;;;;;;;4977282;28;20061;-84
2023/10/23 02:04:57;;;;;;;9.20;2.35;;;;;;;;;;4958752;28;20078;-84
2023/10/23 02:07:26;;;;;;;12.20;2.65;;;;;;;;;;4966499;28;20047;-84
2023/10/23 02:09:56;;;;;;;6.50;1.73;;;;;;;;;;4970045;28;20493;-84
2023/10/23 02:12:24;;;;;;;12.07;2.13;;;;;;;;;;4978721;28;20058;-84
2023/10/23 02:14:52;;;;;;;10.02;2.00;;;;;;;;;;4971946;28;20050;-84
2023/10/23 02:17:20;;;;;;;5.97;1.58;;;;;;;;;;4972558;28;20043;-84
2023/10/23 02:19:48;;;;;;;7.60;1.90;;;;;;;;;;4978411;28;20054;-84
2023/10/23 02:22:16;;;;;;;9.90;2.33;;;;;;;;;;4972391;28;20065;-84
2023/10/23 02:24:44;;;;;;;14.25;2.10;;;;;;;;;;4977907;28;20173;-84
2023/10/23 02:27:11;;;;;;;17.77;2.80;;;;;;;;;;4971464;28;20074;-84
2023/10/23 02:29:41;;;;;;;12.70;2.40;;;;;;;;;;4969115;28;20047;-84
2023/10/23 02:32:09;;;;;;;9.10;2.20;;;;;;;;;;4977101;28;20490;-84
2023/10/23 02:34:36;;;;;;;7.95;2.38;;;;;;;;;;4962682;28;20047;-84
2023/10/23 02:37:11;;;;;;;6.82;2.17;;;;;;;;;;4978411;28;20050;-84
2023/10/23 02:39:38;;;;;;;14.32;1.75;;;;;;;;;;4976700;28;20059;-84
2023/10/23 02:42:06;;;;;;;8.00;2.00;;;;;;;;;;4965084;28;20055;-84
2023/10/23 02:44:33;;;;;;;18.50;2.78;;;;;;;;;;4965822;28;20047;-84
2023/10/23 02:47:00;;;;;;;13.52;2.85;;;;;;;;;;4977403;28;20054;-84
2023/10/23 02:49:28;;;;;;;7.95;2.05;;;;;;;;;;4968774;28;20047;-84
2023/10/23 02:51:55;;;;;;;10.70;2.28;;;;;;;;;;4974049;28;20059;-84
2023/10/23 02:54:22;;;;;;;7.60;2.22;;;;;;;;;;4965361;28;20522;-84
2023/10/23 02:56:50;;;;;;;7.18;2.20;;;;;;;;;;4967326;28;20493;-84
2023/10/23 02:59:17;;;;;;;8.63;2.45;;;;;;;;;;4963239;28;20470;-84
2023/10/23 03:01:45;;;;;;;8.82;1.77;;;;;;;;;;4966367;28;20501;-84
2023/10/23 03:04:13;;;;;;;6.85;1.50;;;;;;;;;;4957480;29;20561;-84
2023/10/23 03:06:41;;;;;;;10.02;1.90;;;;;;;;;;4972844;28;20421;-84
2023/10/23 03:09:08;;;;;;;6.55;1.65;;;;;;;;;;4963394;28;20133;-84
2023/10/23 03:11:36;;;;;;;8.95;1.83;;;;;;;;;;4976084;28;20545;-84
2023/10/23 03:14:04;;;;;;;11.80;1.70;;;;;;;;;;4972422;28;20105;-83
2023/10/23 03:16:31;;;;;;;14.07;2.25;;;;;;;;;;4966497;28;20051;-84
2023/10/23 03:18:58;;;;;;;5.20;1.63;;;;;;;;;;4960852;28;20086;-83
2023/10/23 03:21:26;;;;;;;14.52;2.28;;;;;;;;;;4971685;28;20078;-83
2023/10/23 03:23:53;;;;;;;5.63;2.03;;;;;;;;;;4969351;28;20751;-83
2023/10/23 03:26:20;;;;;;;10.00;2.10;;;;;;;;;;4970947;28;20055;-83
2023/10/23 03:28:47;;;;;;;5.03;1.98;;;;;;;;;;4967244;28;20417;-84
2023/10/23 03:31:15;;;;;;;9.20;2.08;;;;;;;;;;4978181;28;20046;-84
2023/10/23 03:33:42;;;;;;;7.45;2.10;;;;;;;;;;4978078;28;20050;-85
2023/10/23 03:36:09;;;;;;;9.32;1.83;;;;;;;;;;4968658;28;20054;-84
2023/10/23 03:38:36;;;;;;;5.95;1.85;;;;;;;;;;4967307;28;20094;-84
2023/10/23 03:41:04;;;;;;;3.83;1.70;;;;;;;;;;4967295;28;20109;-85
2023/10/23 03:43:32;;;;;;;7.95;1.90;;;;;;;;;;4977076;28;20054;-85
2023/10/23 03:46:05;;;;;;;6.18;1.77;;;;;;;;;;4976589;28;20054;-84
2023/10/23 03:48:36;;;;;;;2.85;1.88;;;;;;;;;;4976745;28;20425;-84
2023/10/23 03:51:03;;;;;;;4.20;2.45;;;;;;;;;;4962908;28;20052;-84
2023/10/23 03:53:31;;;;;;;6.43;2.17;;;;;;;;;;4964917;28;20457;-84
2023/10/23 03:55:58;;;;;;;5.47;1.80;;;;;;;;;;4976779;28;20043;-85
2023/10/23 03:58:25;;;;;;;11.77;2.90;;;;;;;;;;4973494;28;20050;-85
2023/10/23 04:00:53;;;;;;;6.95;2.08;;;;;;;;;;4972031;28;20114;-85
2023/10/23 04:03:21;;;;;;;9.57;3.25;;;;;;;;;;4972088;28;20114;-85
2023/10/23 04:05:49;;;;;;;7.65;2.20;;;;;;;;;;4973397;28;20472;-85
2023/10/23 04:08:16;;;;;;;16.13;3.17;;;;;;;;;;4980876;28;20054;-85
2023/10/23 04:10:47;;;;;;;5.70;2.30;;;;;;;;;;4987941;28;20051;-85
2023/10/23 04:13:17;;;;;;;7.38;2.53;;;;;;;;;;4987990;28;20059;-85
2023/10/23 04:15:54;;;;;;;6.20;1.55;;;;;;;;;;4977330;28;20067;-85
2023/10/23 04:18:21;;;;;;;7.07;2.00;;;;;;;;;;4982409;28;20051;-85
2023/10/23 04:20:49;;;;;;;3.38;1.95;;;;;;;;;;4977908;28;20079;-85
2023/10/23 04:23:16;;;;;;;7.05;1.52;;;;;;;;;;4985061;28;20469;-85
2023/10/23 04:25:43;;;;;;;10.23;1.98;;;;;;;;;;4967250;28;20058;-85
2023/10/23 04:28:10;;;;;;;4.53;1.67;;;;;;;;;;4981559;28;20066;-85
2023/10/23 04:30:39;;;;;;;3.85;1.70;;;;;;;;;;4979600;28;20046;-85
2023/10/23 04:33:06;;;;;;;5.38;2.35;;;;;;;;;;4983912;28;20043;-84
2023/10/23 04:35:33;;;;;;;4.72;2.05;;;;;;;;;;4976427;28;20053;-84
2023/10/23 04:38:01;;;;;;;8.73;1.88;;;;;;;;;;4977530;28;20085;-85
2023/10/23 04:40:28;;;;;;;6.35;2.65;;;;;;;;;;5005205;23;20062;-81
2023/10/23 04:42:55;;;;;;;9.77;4.45;;;;;;;;;;5037226;28;20050;-79
2023/10/23 04:45:22;;;;;;;35.97;16.23;;;;;;;;;;5037690;28;20041;-77
2023/10/23 04:47:50;;;;;;;37.03;21.63;;;;;;;;;;5036611;28;20100;-79
2023/10/23 04:50:17;;;;;;;9.15;5.72;;;;;;;;;;5037015;28;20046;-78
2023/10/23 04:52:44;;;;;;;16.10;7.35;;;;;;;;;;5036753;28;20084;-78
2023/10/23 04:55:11;;;;;;;39.13;13.95;;;;;;;;;;5036030;28;20480;-79
2023/10/23 04:57:39;;;;;;;19.08;7.22;;;;;;;;;;5035407;28;20045;-77
2023/10/23 05:00:07;;;;;;;23.40;7.25;;;;;;;;;;5037913;28;20080;-79
2023/10/23 05:02:34;;;;;;;11.20;3.80;;;;;;;;;;5037294;28;20049;-78
2023/10/23 05:05:01;;;;;;;9.90;4.22;;;;;;;;;;5035737;28;20500;-78
2023/10/23 05:07:28;;;;;;;12.18;2.80;;;;;;;;;;5035871;28;20053;-78
2023/10/23 05:09:55;;;;;;;8.88;3.65;;;;;;;;;;5036624;28;20068;-78
2023/10/23 05:12:23;;;;;;;16.85;5.68;;;;;;;;;;5037062;28;20052;-80
2023/10/23 05:14:51;;;;;;;26.42;9.25;;;;;;;;;;5035754;28;20085;-78
2023/10/23 05:17:18;;;;;;;13.77;4.80;;;;;;;;;;5036070;28;20148;-79
2023/10/23 05:19:47;;;;;;;21.60;3.60;;;;;;;;;;5035193;28;20458;-79
2023/10/23 05:22:14;;;;;;;19.23;3.65;;;;;;;;;;5035175;28;20045;-79
2023/10/23 05:24:48;;;;;;;11.88;5.28;;;;;;;;;;5034918;28;20049;-78
2023/10/23 05:27:17;;;;;;;16.13;5.43;;;;;;;;;;5036031;28;20056;-79
2023/10/23 05:29:44;;;;;;;14.10;6.00;;;;;;;;;;5035911;28;20049;-78
2023/10/23 05:32:12;;;;;;;13.45;5.47;;;;;;;;;;5036028;28;20045;-79
2023/10/23 05:34:39;;;;;;;7.55;5.88;;;;;;;;;;5035986;28;20103;-78
2023/10/23 05:37:06;;;;;;;17.48;6.72;;;;;;;;;;5034306;28;20527;-79
2023/10/23 05:39:33;;;;;;;20.00;6.82;;;;;;;;;;5033976;28;20141;-78
2023/10/23 05:42:01;;;;;;;10.13;5.43;;;;;;;;;;5035751;28;20096;-79
2023/10/23 05:44:28;;;;;;;16.00;4.80;;;;;;;;;;5034206;28;20099;-79
2023/10/23 05:46:55;;;;;;;11.02;5.43;;;;;;;;;;5034247;28;20050;-78
2023/10/23 05:49:29;;;;;;;10.40;4.97;;;;;;;;;;5034152;28;20050;-79
2023/10/23 05:51:56;;;;;;;11.50;7.00;;;;;;;;;;5034195;28;20041;-79
2023/10/23 05:54:25;;;;;;;18.75;7.95;;;;;;;;;;5033548;28;20124;-79
2023/10/23 05:56:52;;;;;;;19.13;9.07;;;;;;;;;;5033921;28;20096;-79
2023/10/23 05:59:19;;;;;;;17.27;6.85;;;;;;;;;;5035305;28;20046;-79
2023/10/23 06:01:46;;;;;;;13.27;5.80;;;;;;;;;;5033475;28;20099;-78
2023/10/23 06:04:14;;;;;;;15.48;4.30;;;;;;;;;;5033119;28;20143;-79
2023/10/23 06:06:42;;;;;;;6.72;3.28;;;;;;;;;;5032992;28;20053;-79
2023/10/23 06:09:09;;;;;;;8.80;3.90;;;;;;;;;;5033151;28;20077;-78
2023/10/23 06:11:36;;;;;;;8.35;3.88;;;;;;;;;;5034127;28;20462;-79
2023/10/23 06:14:04;;;;;;;11.45;4.47;;;;;;;;;;5033132;28;20103;-79
2023/10/23 06:16:31;;;;;;;10.82;4.15;;;;;;;;;;5034043;28;20049;-79
2023/10/23 06:18:59;;;;;;;15.93;5.30;;;;;;;;;;5034268;28;20085;-79
2023/10/23 06:21:27;;;;;;;17.80;5.75;;;;;;;;;;5032716;28;20141;-78
2023/10/23 06:23:54;;;;;;;10.60;4.32;;;;;;;;;;5032852;28;20053;-79
2023/10/23 06:26:21;;;;;;;9.68;3.80;;;;;;;;;;5032708;28;20119;-79
2023/10/23 06:28:49;;;;;;;12.77;4.80;;;;;;;;;;5032491;28;20563;-79
2023/10/23 06:31:16;;;;;;;6.95;4.00;;;;;;;;;;5032378;28;20049;-79
2023/10/23 06:33:43;;;;;;;7.97;4.05;;;;;;;;;;5033776;28;20052;-78
2023/10/23 06:36:11;;;;;;;14.18;4.00;;;;;;;;;;5032639;28;20049;-79
2023/10/23 06:38:38;;;;;;;6.72;3.38;;;;;;;;;;5033279;28;20056;-78
2023/10/23 06:41:06;;;;;;;12.68;5.15;;;;;;;;;;5031687;28;20049;-78
2023/10/23 06:43:34;;;;;;;21.23;9.75;;;;;;;;;;5033340;28;20049;-78
2023/10/23 06:46:01;;;;;;;25.30;10.90;;;;;;;;;;5033028;28;20132;-79
2023/10/23 06:48:30;;;;;;;21.55;9.32;;;;;;;;;;5033148;28;20084;-79
2023/10/23 06:50:58;;;;;;;16.10;8.75;;;;;;;;;;5032895;28;20129;-79
2023/10/23 06:53:25;;;;;;;15.88;7.63;;;;;;;;;;5032122;28;20046;-78
2023/10/23 06:55:54;;;;;;;12.48;3.42;;;;;;;;;;5031919;28;20104;-78
2023/10/23 06:58:21;;;;;;;7.82;3.60;;;;;;;;;;5032078;28;20058;-79
2023/10/23 07:00:49;;;;;;;10.07;3.20;;;;;;;;;;5032795;28;20057;-78
2023/10/23 07:03:16;;;;;;;9.90;3.22;;;;;;;;;;5033289;28;20053;-78
2023/10/23 07:05:44;;;;;;;6.07;2.80;;;;;;;;;;5032803;28;20639;-78
2023/10/23 07:08:12;;;;;;;14.18;3.70;;;;;;;;;;5032958;28;20103;-78
2023/10/23 07:10:39;;;;;;;9.32;3.45;;;;;;;;;;5031238;28;20516;-80
2023/10/23 07:13:06;;;;;;;11.68;3.90;;;;;;;;;;5032141;28;20401;-79
2023/10/23 07:15:47;;;;;;;10.48;3.35;;;;;;;;;;5032978;28;20053;-78
2023/10/23 07:18:16;;;;;;;11.95;4.20;;;;;;;;;;5032731;28;20545;-78
2023/10/23 07:20:56;;;;;;;7.13;3.30;;;;;;;;;;5032254;28;20534;-78
2023/10/23 07:23:24;;;;;;;12.98;3.47;;;;;;;;;;5032741;28;20503;-78
2023/10/23 07:26:12;;;;;;;10.75;3.50;;;;;;;;;;5032695;28;20061;-79
2023/10/23 07:28:39;;;;;;;15.73;3.80;;;;;;;;;;5032779;28;20049;-79
2023/10/23 07:31:07;;;;;;;11.57;3.17;;;;;;;;;;5032477;28;20049;-79
2023/10/23 07:33:35;;;;;;;9.15;3.72;;;;;;;;;;5031197;28;20076;-78
2023/10/23 07:36:06;;;;;;;15.85;4.40;;;;;;;;;;5031568;28;20053;-78
2023/10/23 07:38:33;;;;;;;23.27;4.88;;;;;;;;;;5035764;28;20048;-79
2023/10/23 07:41:01;;;;;;;25.95;5.40;;;;;;;;;;5036857;28;20116;-79
2023/10/23 07:43:29;;;;;;;31.20;5.30;;;;;;;;;;5036457;28;20049;-79
2023/10/23 07:45:57;;;;;;;27.90;5.88;;;;;;;;;;5036024;28;20057;-80
2023/10/23 07:48:42;;;;;;;32.55;6.03;;;;;;;;;;5036262;28;20140;-80
2023/10/23 07:51:10;;;;;;;31.10;7.50;;;;;;;;;;5036252;28;20045;-79
2023/10/23 07:53:37;;;;;;;33.22;9.23;;;;;;;;;;5035183;28;20053;-79
2023/10/23 07:56:04;;;;;;;62.05;10.68;;;;;;;;;;5035448;28;20053;-79
2023/10/23 07:58:32;;;;;;;65.45;11.07;;;;;;;;;;5036395;28;20049;-79
2023/10/23 08:01:09;;;;;;;55.25;10.02;;;;;;;;;;5035370;28;20060;-79
2023/10/23 08:03:36;;;;;;;29.25;7.63;;;;;;;;;;5040139;28;20132;-80
2023/10/23 08:06:05;;;;;;;26.27;6.20;;;;;;;;;;5038694;28;20052;-79
2023/10/23 08:08:36;;;;;;;26.92;6.75;;;;;;;;;;5038276;28;20124;-79
2023/10/23 08:11:04;;;;;;;27.98;5.28;;;;;;;;;;5039503;28;20080;-79
2023/10/23 08:13:31;;;;;;;17.70;3.67;;;;;;;;;;5037815;28;20045;-79
2023/10/23 08:15:59;;;;;;;42.17;4.28;;;;;;;;;;5038626;28;20049;-80
2023/10/23 08:18:27;;;;;;;23.60;3.25;;;;;;;;;;5038312;28;20069;-80
2023/10/23 08:21:10;;;;;;;32.17;4.43;;;;;;;;;;5039650;28;20402;-80
2023/10/23 08:23:38;;;;;;;42.72;4.28;;;;;;;;;;5037541;28;20087;-79
2023/10/23 08:26:05;;;;;;;46.97;4.25;;;;;;;;;;5037605;28;20459;-80
2023/10/23 08:28:32;;;;;;;36.22;4.07;;;;;;;;;;5036848;28;20389;-79
2023/10/23 08:31:20;;;;;;;13.38;1.90;;;;;;;;;;5038570;28;20049;-79
2023/10/23 08:34:05;;;;;;;20.17;2.47;;;;;;;;;;5036990;28;20060;-80
2023/10/23 08:36:33;;;;;;;19.02;2.40;;;;;;;;;;5036836;28;20084;-80
2023/10/23 08:39:02;;;;;;;20.02;2.45;;;;;;;;;;5036917;28;20049;-79
2023/10/23 08:41:30;;;;;;;10.98;2.20;;;;;;;;;;5036488;28;20057;-79
2023/10/23 08:43:58;;;;;;;10.55;2.42;;;;;;;;;;5036465;28;20045;-79
2023/10/23 08:46:25;;;;;;;7.68;2.28;;;;;;;;;;5036664;28;20408;-79
2023/10/23 08:48:53;;;;;;;11.73;2.42;;;;;;;;;;5037839;28;20076;-79
2023/10/23 08:51:20;;;;;;;17.05;2.63;;;;;;;;;;5037409;28;20053;-79
2023/10/23 08:53:55;;;;;;;15.95;2.67;;;;;;;;;;5037288;28;20045;-79
2023/10/23 08:56:37;;;;;;;12.10;2.30;;;;;;;;;;5037141;28;20103;-79
2023/10/23 08:59:05;;;;;;;9.90;1.80;;;;;;;;;;5037789;28;20045;-79
2023/10/23 09:01:34;;;;;;;7.82;1.77;;;;;;;;;;5037339;28;20061;-78
2023/10/23 09:04:04;;;;;;;11.00;2.30;;;;;;;;;;5037181;28;20423;-79
2023/10/23 09:06:33;;;;;;;21.63;2.70;;;;;;;;;;5035906;28;20077;-79
2023/10/23 09:09:01;;;;;;;5.68;1.60;;;;;;;;;;5035582;28;20054;-79
2023/10/23 09:11:48;;;;;;;6.45;2.00;;;;;;;;;;5036698;28;20053;-80
2023/10/23 09:14:26;;;;;;;44.08;4.28;;;;;;;;;;5035932;28;20071;-79
2023/10/23 09:16:54;;;;;;;12.10;2.35;;;;;;;;;;5035199;28;20059;-80
2023/10/23 09:19:36;;;;;;;8.55;2.22;;;;;;;;;;5036739;28;20401;-79
2023/10/23 09:22:06;;;;;;;12.18;2.72;;;;;;;;;;5035590;28;20053;-80
2023/10/23 09:24:33;;;;;;;10.23;2.10;;;;;;;;;;5035739;28;20599;-79
2023/10/23 09:27:01;;;;;;;14.10;1.98;;;;;;;;;;5036447;28;20500;-80
2023/10/23 09:29:28;;;;;;;6.72;2.00;;;;;;;;;;5037608;28;20053;-79
2023/10/23 09:31:57;;;;;;;4.82;1.75;;;;;;;;;;5035068;28;20053;-80
2023/10/23 09:34:25;;;;;;;3.33;1.33;;;;;;;;;;5035481;28;20133;-80
2023/10/23 09:36:53;;;;;;;6.38;1.98;;;;;;;;;;5037379;28;20042;-81
2023/10/23 09:39:22;;;;;;;5.03;1.67;;;;;;;;;;5034973;28;20512;-81
2023/10/23 09:41:50;;;;;;;8.00;1.58;;;;;;;;;;5036181;28;20061;-81
2023/10/23 09:44:17;;;;;;;5.00;1.60;;;;;;;;;;5034721;28;20072;-80
2023/10/23 09:46:47;;;;;;;3.75;1.27;;;;;;;;;;5035688;28;20060;-81
2023/10/23 09:49:16;;;;;;;6.53;1.88;;;;;;;;;;5035082;28;20103;-81
2023/10/23 09:51:46;;;;;;;5.47;1.75;;;;;;;;;;5035678;28;20049;-81
2023/10/23 09:54:16;;;;;;;7.10;1.73;;;;;;;;;;5036279;28;20079;-81
2023/10/23 09:56:48;;;;;;;5.00;1.45;;;;;;;;;;5035349;28;20080;-81
2023/10/23 09:59:29;;;;;;;22.42;4.60;;;;;;;;;;5034192;28;20140;-81
2023/10/23 10:02:00;;;;;;;13.23;2.90;;;;;;;;;;5034089;28;20053;-81
2023/10/23 10:04:45;;;;;;;4.03;1.63;;;;;;;;;;5033664;28;20045;-80
2023/10/23 10:07:15;;;;;;;8.35;1.90;;;;;;;;;;5041031;28;20050;-80
2023/10/23 10:09:43;;;;;;;4.15;1.55;;;;;;;;;;5024273;28;20079;-80
2023/10/23 10:12:10;;;;;;;11.48;2.20;;;;;;;;;;5033722;28;20073;-81
2023/10/23 10:14:37;;;;;;;8.65;2.45;;;;;;;;;;5034979;28;20087;-81
2023/10/23 10:17:05;;;;;;;7.00;2.00;;;;;;;;;;5033326;28;20046;-80
2023/10/23 10:19:32;;;;;;;5.78;1.65;;;;;;;;;;5034479;28;20049;-79
2023/10/23 10:22:04;;;;;;;4.03;1.60;;;;;;;;;;5032656;28;20109;-81
2023/10/23 10:24:34;;;;;;;14.13;2.70;;;;;;;;;;5033294;28;20111;-79
2023/10/23 10:27:03;;;;;;;6.63;2.55;;;;;;;;;;5033343;28;20057;-81
2023/10/23 10:29:31;;;;;;;1.88;1.00;;;;;;;;;;5032622;28;20064;-80
2023/10/23 10:32:09;;;;;;;9.93;1.88;;;;;;;;;;5034256;28;20042;-81
2023/10/23 10:34:46;;;;;;;6.38;1.50;;;;;;;;;;5033783;28;20053;-80
2023/10/23 10:37:24;;;;;;;23.65;3.30;;;;;;;;;;5034699;28;20051;-81
2023/10/23 10:39:52;;;;;;;11.15;2.05;;;;;;;;;;5033614;28;20128;-81
2023/10/23 10:42:22;;;;;;;8.23;2.03;;;;;;;;;;5043544;22;20087;-80
2023/10/23 10:44:52;;;;;;;8.82;1.77;;;;;;;;;;5021157;28;20085;-81
2023/10/23 10:47:20;;;;;;;14.48;2.30;;;;;;;;;;5013167;28;20050;-80
2023/10/23 10:49:48;;;;;;;3.63;1.42;;;;;;;;;;5014605;28;20057;-78
2023/10/23 10:52:30;;;;;;;5.15;1.05;;;;;;;;;;5021062;28;20046;-83
2023/10/23 10:55:00;;;;;;;17.70;2.00;;;;;;;;;;5021912;28;20120;-82
2023/10/23 10:57:28;;;;;;;4.25;0.88;;;;;;;;;;5012808;28;20050;-83
2023/10/23 10:59:55;;;;;;;7.28;1.83;;;;;;;;;;5012323;28;20563;-83
2023/10/23 11:02:23;;;;;;;3.53;0.88;;;;;;;;;;5014192;28;20049;-84
2023/10/23 11:04:50;;;;;;;3.55;0.80;;;;;;;;;;5013628;28;20133;-83
2023/10/23 11:07:22;;;;;;;5.60;1.52;;;;;;;;;;5024119;28;20054;-81
2023/10/23 11:09:50;;;;;;;5.78;1.50;;;;;;;;;;5013958;28;20100;-80
2023/10/23 11:12:18;;;;;;;4.95;1.63;;;;;;;;;;5014765;28;20070;-82
2023/10/23 11:14:49;;;;;;;7.00;1.20;;;;;;;;;;5014215;28;20042;-82
2023/10/23 11:17:16;;;;;;;7.20;0.70;;;;;;;;;;5020052;28;20045;-83
2023/10/23 11:19:44;;;;;;;3.58;0.88;;;;;;;;;;5015104;28;20133;-83
2023/10/23 11:22:12;;;;;;;10.48;1.30;;;;;;;;;;5014272;28;20053;-83
2023/10/23 11:24:40;;;;;;;10.63;1.63;;;;;;;;;;5021463;28;20139;-83
2023/10/23 11:27:07;;;;;;;2.00;0.70;;;;;;;;;;5021565;28;20451;-83
2023/10/23 11:29:38;;;;;;;3.08;0.75;;;;;;;;;;5022533;28;20045;-83
2023/10/23 11:32:09;;;;;;;15.63;1.98;;;;;;;;;;5014716;28;20491;-82
2023/10/23 11:34:39;;;;;;;6.35;1.58;;;;;;;;;;5013593;28;20132;-83
2023/10/23 11:37:08;;;;;;;5.97;1.00;;;;;;;;;;5019815;28;20049;-83
2023/10/23 11:39:36;;;;;;;3.42;0.85;;;;;;;;;;5019168;28;20072;-83
2023/10/23 11:42:03;;;;;;;3.47;1.25;;;;;;;;;;5015920;28;20092;-80
2023/10/23 11:44:32;;;;;;;6.15;0.90;;;;;;;;;;5026080;28;20088;-83
2023/10/23 11:46:59;;;;;;;7.53;1.10;;;;;;;;;;5016533;28;20077;-83
2023/10/23 11:49:27;;;;;;;3.42;0.90;;;;;;;;;;5024338;28;20058;-84
2023/10/23 11:51:57;;;;;;;3.05;1.00;;;;;;;;;;5017250;28;20108;-83
2023/10/23 11:54:25;;;;;;;2.25;0.80;;;;;;;;;;5016185;28;20046;-81
2023/10/23 11:56:55;;;;;;;2.35;0.60;;;;;;;;;;5024618;28;20137;-83
2023/10/23 11:59:25;;;;;;;4.80;0.90;;;;;;;;;;5015922;28;20068;-82
2023/10/23 12:01:54;;;;;;;6.68;1.20;;;;;;;;;;5024307;28;20072;-82
2023/10/23 12:04:22;;;;;;;12.35;1.60;;;;;;;;;;5024197;28;20052;-82
2023/10/23 12:06:50;;;;;;;10.02;1.38;;;;;;;;;;5017427;28;20054;-82
2023/10/23 12:09:17;;;;;;;6.93;1.23;;;;;;;;;;5022227;28;20053;-82
2023/10/23 12:11:44;;;;;;;7.97;1.50;;;;;;;;;;5019277;28;20046;-83
2023/10/23 12:14:12;;;;;;;3.40;1.30;;;;;;;;;;5023343;28;20043;-83
2023/10/23 12:16:39;;;;;;;5.25;1.35;;;;;;;;;;5024130;28;20492;-82
2023/10/23 12:19:09;;;;;;;3.85;1.00;;;;;;;;;;5024250;28;20050;-83
2023/10/23 12:21:37;;;;;;;5.10;0.80;;;;;;;;;;5015363;28;20056;-83
2023/10/23 12:24:06;;;;;;;3.67;1.42;;;;;;;;;;5015842;28;20045;-83
2023/10/23 12:26:34;;;;;;;44.03;4.43;;;;;;;;;;5024878;28;20045;-83
2023/10/23 12:29:05;;;;;;;4.57;0.85;;;;;;;;;;5025269;28;20123;-83
2023/10/23 12:31:32;;;;;;;3.60;0.98;;;;;;;;;;5015549;28;20045;-83
2023/10/23 12:34:19;;;;;;;3.20;1.00;;;;;;;;;;5021754;28;20132;-83
2023/10/23 12:36:47;;;;;;;4.28;1.10;;;;;;;;;;5024733;28;20057;-83
2023/10/23 12:39:14;;;;;;;3.35;1.63;;;;;;;;;;5016879;28;20045;-83
2023/10/23 12:41:42;;;;;;;3.85;1.23;;;;;;;;;;5015639;28;20056;-83
2023/10/23 12:44:09;;;;;;;18.42;2.20;;;;;;;;;;5016774;28;20129;-83
2023/10/23 12:46:36;;;;;;;3.85;0.50;;;;;;;;;;5024558;28;20072;-83
2023/10/23 12:49:04;;;;;;;6.65;0.90;;;;;;;;;;5023575;28;20050;-82
2023/10/23 12:51:31;;;;;;;3.90;0.90;;;;;;;;;;5023763;28;20063;-82
2023/10/23 12:53:59;;;;;;;6.15;1.08;;;;;;;;;;5007706;28;20046;-82
2023/10/23 12:56:27;;;;;;;3.85;1.02;;;;;;;;;;5023612;28;20046;-82
2023/10/23 12:58:54;;;;;;;4.85;1.10;;;;;;;;;;5025170;28;20050;-81
2023/10/23 13:01:22;;;;;;;5.70;1.17;;;;;;;;;;5015472;28;20053;-83
2023/10/23 13:03:50;;;;;;;4.82;1.15;;;;;;;;;;5033182;28;20045;-82
2023/10/23 13:06:18;;;;;;;3.25;0.90;;;;;;;;;;5023498;28;20061;-82
2023/10/23 13:08:47;;;;;;;1.88;0.60;;;;;;;;;;5016959;28;20056;-82
2023/10/23 13:11:14;;;;;;;2.80;0.90;;;;;;;;;;5022180;28;20524;-82
2023/10/23 13:13:41;;;;;;;1.38;0.63;;;;;;;;;;5014954;28;20111;-83
2023/10/23 13:16:09;;;;;;;9.32;1.60;;;;;;;;;;5015340;28;20398;-82
2023/10/23 13:18:39;;;;;;;3.38;1.10;;;;;;;;;;5023472;28;20053;-81
2023/10/23 13:21:20;;;;;;;5.68;0.90;;;;;;;;;;5015128;28;20112;-82
2023/10/23 13:24:01;;;;;;;5.03;0.95;;;;;;;;;;5007742;28;20050;-82
2023/10/23 13:26:28;;;;;;;14.13;1.40;;;;;;;;;;5023520;28;20061;-83
2023/10/23 13:28:56;;;;;;;3.70;0.70;;;;;;;;;;5023598;28;20049;-82
2023/10/23 13:31:26;;;;;;;7.18;1.55;;;;;;;;;;5024775;28;20054;-83
2023/10/23 13:33:53;;;;;;;14.07;1.17;;;;;;;;;;5017972;28;20046;-82
2023/10/23 13:36:20;;;;;;;3.08;0.73;;;;;;;;;;5021613;28;20069;-82
2023/10/23 13:38:48;;;;;;;3.08;0.57;;;;;;;;;;5025480;28;20057;-83
2023/10/23 13:41:15;;;;;;;1.90;0.77;;;;;;;;;;5021993;28;20088;-83
2023/10/23 13:43:43;;;;;;;3.70;1.00;;;;;;;;;;5016265;28;20472;-83
2023/10/23 13:46:10;;;;;;;4.50;0.90;;;;;;;;;;5014532;28;20568;-83
2023/10/23 13:48:37;;;;;;;5.85;1.17;;;;;;;;;;5024135;28;20423;-82
2023/10/23 13:51:05;;;;;;;17.45;2.67;;;;;;;;;;5021998;28;20057;-82
2023/10/23 13:53:32;;;;;;;21.17;2.00;;;;;;;;;;5023004;28;20042;-82
2023/10/23 13:56:00;;;;;;;13.32;1.60;;;;;;;;;;5023083;28;20046;-83
2023/10/23 13:58:27;;;;;;;12.30;1.40;;;;;;;;;;5014471;28;20426;-82
2023/10/23 14:00:54;;;;;;;16.73;2.03;;;;;;;;;;5014227;28;20461;-82
2023/10/23 14:03:22;;;;;;;19.25;2.30;;;;;;;;;;5021423;28;20080;-82
2023/10/23 14:05:52;;;;;;;12.95;1.95;;;;;;;;;;5017860;28;20065;-83
2023/10/23 14:08:19;;;;;;;23.42;2.80;;;;;;;;;;5025968;28;20088;-83
2023/10/23 14:11:01;;;;;;;52.33;6.13;;;;;;;;;;5015281;28;20133;-82
2023/10/23 14:13:48;;;;;;;31.48;3.17;;;;;;;;;;5014887;28;20424;-82
2023/10/23 14:16:15;;;;;;;16.05;2.03;;;;;;;;;;5024280;28;20104;-82
2023/10/23 14:18:43;;;;;;;9.88;1.50;;;;;;;;;;5023209;28;20053;-83
2023/10/23 14:21:10;;;;;;;5.68;1.17;;;;;;;;;;5020625;28;20076;-83
2023/10/23 14:23:37;;;;;;;2.83;0.70;;;;;;;;;;5017252;28;20104;-82
2023/10/23 14:26:07;;;;;;;6.10;0.80;;;;;;;;;;5023371;28;20054;-83
2023/10/23 14:28:35;;;;;;;2.38;1.00;;;;;;;;;;5016512;28;20050;-83
2023/10/23 14:31:02;;;;;;;9.10;1.13;;;;;;;;;;5028558;28;20112;-83
2023/10/23 14:33:29;;;;;;;3.50;0.65;;;;;;;;;;5028146;28;20049;-83
2023/10/23 14:35:57;;;;;;;11.57;1.73;;;;;;;;;;5028637;28;20073;-83
2023/10/23 14:38:24;;;;;;;6.80;1.40;;;;;;;;;;5026443;28;20079;-82
2023/10/23 14:40:55;;;;;;;10.85;2.35;;;;;;;;;;5020369;28;20053;-82
2023/10/23 14:43:22;;;;;;;11.82;2.22;;;;;;;;;;5019206;28;20049;-82
2023/10/23 14:45:51;;;;;;;31.92;3.35;;;;;;;;;;4999712;28;20556;-81